Terminal Aerodrome Forecast
Issued by NWS

Home | Current Version | Previous Version | Graphics & Text | Print | Product List | Glossary On
Versions: 1 2 3 4 5 6 7 8 9 10 11 12 13 14
000
FTUS45 KGGW 221146
TAFOLF
TAF
KOLF 221146Z 2212/2312 03006KT P6SM VCSH OVC090
     FM222100 02010KT P6SM OVC050 PROB30 2221/2223 4SM -SHRA OVC025
     FM222300 01009KT P6SM OVC040=

USA.gov is the U.S. government's official web portal to all federal, state and local government web resources and services.